Time;durP1;ratioP1;P1;durP2;ratioP2;P2;SDS_P1;SDS_P2;PMS_P1;PMS_P2;Temp;Humidity;BMP_temperature;BMP_pressure;BME280_temperature;BME280_humidity;BME280_pressure;Samples;Min_cycle;Max_cycle;Signal;HPM_P1;HPM_P2
2022/07/27 00:00:33;;;;;;;2.65;1.60;;;15.60;99.90;;;;;;5038691;28;20405;-77
2022/07/27 00:03:17;;;;;;;5.75;2.05;;;15.50;99.90;;;;;;5052064;28;20778;-74
2022/07/27 00:06:01;;;;;;;2.47;1.55;;;15.50;99.90;;;;;;5057512;28;20397;-75
2022/07/27 00:08:45;;;;;;;5.55;1.75;;;15.50;99.90;;;;;;5057009;28;20399;-74
2022/07/27 00:11:29;;;;;;;5.75;1.58;;;15.50;99.90;;;;;;5039008;28;20385;-75
2022/07/27 00:14:14;;;;;;;4.90;2.00;;;15.50;99.90;;;;;;5042721;28;20441;-75
2022/07/27 00:16:58;;;;;;;3.92;1.38;;;15.50;99.90;;;;;;5049379;28;20508;-75
2022/07/27 00:19:42;;;;;;;4.03;1.65;;;15.50;99.90;;;;;;5037309;28;20501;-76
2022/07/27 00:22:26;;;;;;;3.95;1.67;;;15.50;99.90;;;;;;5050582;28;20398;-75
2022/07/27 00:25:10;;;;;;;4.85;1.65;;;15.50;99.90;;;;;;5059018;28;20910;-75
2022/07/27 00:27:58;;;;;;;4.90;1.80;;;15.40;99.90;;;;;;5052909;28;20445;-75
2022/07/27 00:30:42;;;;;;;6.55;1.80;;;15.40;99.90;;;;;;5047680;28;20392;-75
2022/07/27 00:33:26;;;;;;;4.07;1.70;;;15.30;99.90;;;;;;5053891;28;20457;-74
2022/07/27 00:36:10;;;;;;;5.40;2.08;;;15.30;99.90;;;;;;5046947;28;20481;-76
2022/07/27 00:38:55;;;;;;;2.60;1.70;;;15.30;99.90;;;;;;5049594;28;20929;-76
2022/07/27 00:41:39;;;;;;;6.13;1.90;;;15.20;99.90;;;;;;5047694;28;20481;-75
2022/07/27 00:44:31;;;;;;;6.13;1.85;;;15.20;99.90;;;;;;5053555;28;20482;-76
2022/07/27 00:47:15;;;;;;;4.60;2.05;;;15.20;99.90;;;;;;5051261;28;20404;-75
2022/07/27 00:50:00;;;;;;;5.70;1.95;;;15.10;99.90;;;;;;5050693;28;20404;-76
2022/07/27 00:52:45;;;;;;;7.25;2.00;;;15.00;99.90;;;;;;5046029;28;20459;-76
2022/07/27 00:55:32;;;;;;;3.60;1.70;;;15.00;99.90;;;;;;5051869;28;20533;-75
2022/07/27 00:58:16;;;;;;;4.97;2.13;;;14.90;99.90;;;;;;5051362;28;20414;-76
2022/07/27 01:01:00;;;;;;;7.87;2.27;;;15.00;99.90;;;;;;5048708;28;20412;-75
2022/07/27 01:03:45;;;;;;;3.53;1.88;;;15.00;99.90;;;;;;5054034;28;20753;-75
2022/07/27 01:06:30;;;;;;;4.75;2.25;;;15.00;99.90;;;;;;5052521;28;20901;-75
2022/07/27 01:12:31;;;;;;;6.80;2.33;;;14.80;99.90;;;;;;5041308;28;20408;-75
2022/07/27 01:15:16;;;;;;;3.33;2.08;;;14.80;99.90;;;;;;5050986;28;20408;-75
2022/07/27 01:18:00;;;;;;;5.03;2.03;;;14.80;99.90;;;;;;5046594;28;20420;-75
2022/07/27 01:20:44;;;;;;;3.33;2.00;;;14.80;99.90;;;;;;5045408;28;20400;-75
2022/07/27 01:23:31;;;;;;;5.68;2.17;;;14.70;99.90;;;;;;5048045;28;20392;-74
2022/07/27 01:26:15;;;;;;;5.45;2.42;;;14.70;99.90;;;;;;5046910;28;20435;-74
2022/07/27 01:29:00;;;;;;;5.78;2.20;;;14.70;99.90;;;;;;5056786;28;20450;-75
2022/07/27 01:31:45;;;;;;;4.33;2.10;;;14.60;99.90;;;;;;5049426;28;20402;-78
2022/07/27 01:34:32;;;;;;;5.25;2.00;;;14.60;99.90;;;;;;5062099;28;20402;-75
2022/07/27 01:37:16;;;;;;;4.68;2.22;;;14.60;99.90;;;;;;5049307;28;20413;-75
2022/07/27 01:40:00;;;;;;;5.15;2.30;;;14.60;99.90;;;;;;5042540;28;20883;-75
2022/07/27 01:42:44;;;;;;;4.05;2.28;;;14.50;99.90;;;;;;5041665;28;20392;-74
2022/07/27 01:45:28;;;;;;;7.40;2.25;;;14.40;99.90;;;;;;5042824;28;20421;-76
2022/07/27 01:48:13;;;;;;;5.50;2.50;;;14.40;99.90;;;;;;5050429;28;20502;-75
2022/07/27 01:50:57;;;;;;;5.80;2.30;;;14.40;99.90;;;;;;5055525;28;20535;-76
2022/07/27 01:53:41;;;;;;;4.85;2.60;;;14.30;99.90;;;;;;5038433;28;20421;-76
2022/07/27 01:56:25;;;;;;;3.78;2.50;;;14.30;99.90;;;;;;5044039;28;20465;-75
2022/07/27 01:59:10;;;;;;;4.47;2.42;;;14.30;99.90;;;;;;5047294;28;20426;-76
2022/07/27 02:01:53;;;;;;;4.25;2.38;;;14.20;99.90;;;;;;5047345;28;20391;-75
2022/07/27 02:04:38;;;;;;;5.85;2.40;;;14.20;99.90;;;;;;5041268;28;20407;-77
2022/07/27 02:07:22;;;;;;;7.78;2.40;;;14.10;99.90;;;;;;5043735;28;20389;-75
2022/07/27 02:10:07;;;;;;;4.65;2.38;;;14.10;99.90;;;;;;5046988;28;20404;-75
2022/07/27 02:12:52;;;;;;;5.63;2.47;;;14.10;99.90;;;;;;5046709;28;20428;-75
2022/07/27 02:15:36;;;;;;;5.55;2.70;;;14.10;99.90;;;;;;5039992;28;20410;-75
2022/07/27 02:18:20;;;;;;;8.65;3.15;;;14.10;99.90;;;;;;5047793;28;20498;-74
2022/07/27 02:21:05;;;;;;;4.85;2.35;;;14.10;99.90;;;;;;5044732;28;20737;-75
2022/07/27 02:23:49;;;;;;;5.20;2.42;;;14.00;99.90;;;;;;5056949;28;20406;-74
2022/07/27 02:26:33;;;;;;;7.70;2.60;;;14.00;99.90;;;;;;5046735;28;20434;-75
2022/07/27 02:29:17;;;;;;;4.03;2.37;;;13.90;99.90;;;;;;5042349;28;20428;-74
2022/07/27 02:32:01;;;;;;;6.33;2.47;;;13.90;99.90;;;;;;5049598;28;20400;-73
2022/07/27 02:34:45;;;;;;;4.07;2.30;;;13.90;99.90;;;;;;5046535;28;20433;-76
2022/07/27 02:37:30;;;;;;;7.45;2.58;;;13.90;99.90;;;;;;5041919;28;20565;-74
2022/07/27 02:40:16;;;;;;;6.13;2.50;;;13.90;99.90;;;;;;5043702;28;20394;-74
2022/07/27 02:43:00;;;;;;;5.38;2.47;;;13.90;99.90;;;;;;5051209;28;20411;-75
2022/07/27 02:45:44;;;;;;;6.82;2.53;;;13.90;99.90;;;;;;5049406;28;20452;-76
2022/07/27 02:48:28;;;;;;;7.57;2.50;;;13.90;99.90;;;;;;5055914;28;20439;-75
2022/07/27 02:51:13;;;;;;;8.95;2.60;;;13.80;99.90;;;;;;5044550;28;20412;-75
2022/07/27 02:53:58;;;;;;;5.32;2.40;;;13.90;99.90;;;;;;5041004;28;20496;-75
2022/07/27 02:56:42;;;;;;;4.78;2.60;;;13.90;99.90;;;;;;5045770;28;20460;-76
2022/07/27 02:59:26;;;;;;;4.88;2.70;;;13.80;99.90;;;;;;5047792;28;20481;-75
2022/07/27 03:02:10;;;;;;;4.90;2.50;;;13.80;99.90;;;;;;5041684;28;20415;-75
2022/07/27 03:04:54;;;;;;;8.77;2.85;;;13.80;99.90;;;;;;5054706;28;20425;-73
2022/07/27 03:07:38;;;;;;;4.88;2.30;;;13.70;99.90;;;;;;5046952;28;20881;-75
2022/07/27 03:10:22;;;;;;;3.95;2.55;;;13.70;99.90;;;;;;5040876;28;20396;-75
2022/07/27 03:13:06;;;;;;;;;;;13.60;99.90;;;;;;5051427;28;20133;-75
2022/07/27 03:15:50;;;;;;;;;;;13.60;99.90;;;;;;5048527;28;19924;-75
2022/07/27 03:18:34;;;;;;;;;;;13.50;99.90;;;;;;5049456;28;19971;-75
2022/07/27 03:21:18;;;;;;;;;;;13.50;99.90;;;;;;5049189;28;20402;-74
2022/07/27 03:24:03;;;;;;;;;;;13.40;99.90;;;;;;5047871;28;19931;-75
2022/07/27 03:26:47;;;;;;;;;;;13.40;99.90;;;;;;5051765;28;19931;-75
2022/07/27 03:29:32;;;;;;;;;;;13.40;99.90;;;;;;5056698;28;20276;-75
2022/07/27 03:32:16;;;;;;;;;;;13.30;99.90;;;;;;5036983;28;19923;-74
2022/07/27 03:35:00;;;;;;;;;;;13.30;99.90;;;;;;5049669;28;20051;-74
2022/07/27 03:37:44;;;;;;;;;;;13.30;99.90;;;;;;5052467;28;19920;-74
2022/07/27 03:40:31;;;;;;;;;;;13.30;99.90;;;;;;5048736;28;19916;-75
2022/07/27 03:43:15;;;;;;;;;;;13.30;99.90;;;;;;5045000;28;20012;-75
2022/07/27 03:46:00;;;;;;;;;;;13.30;99.90;;;;;;5052129;28;19920;-76
2022/07/27 03:48:44;;;;;;;;;;;13.20;99.90;;;;;;5053729;28;19915;-75
2022/07/27 03:51:28;;;;;;;;;;;13.20;99.90;;;;;;5050263;28;19938;-75
2022/07/27 03:54:12;;;;;;;;;;;13.20;99.90;;;;;;5057487;28;19932;-74
2022/07/27 03:56:56;;;;;;;;;;;13.20;99.90;;;;;;5060509;28;19919;-74
2022/07/27 03:59:41;;;;;;;;;;;13.20;99.90;;;;;;5052504;28;19916;-75
2022/07/27 04:02:25;;;;;;;;;;;13.10;99.90;;;;;;5050298;28;20383;-74
2022/07/27 04:05:10;;;;;;;;;;;13.20;99.90;;;;;;5051292;28;20043;-75
2022/07/27 04:07:54;;;;;;;;;;;13.20;99.90;;;;;;5068501;28;19915;-74
2022/07/27 04:10:38;;;;;;;;;;;13.10;99.90;;;;;;5070286;28;19958;-76
2022/07/27 04:13:22;;;;;;;;;;;13.10;99.90;;;;;;5055635;28;19915;-75
2022/07/27 04:16:06;;;;;;;;;;;13.10;99.90;;;;;;5054120;28;20073;-75
2022/07/27 04:18:52;;;;;;;;;;;13.20;99.90;;;;;;5059133;28;19920;-74
2022/07/27 04:21:36;;;;;;;;;;;13.10;99.90;;;;;;5066744;28;19916;-76
2022/07/27 04:24:20;;;;;;;;;;;13.20;99.90;;;;;;5046159;28;19916;-75
2022/07/27 04:27:04;;;;;;;;;;;13.10;99.90;;;;;;5058477;28;19915;-75
2022/07/27 04:29:49;;;;;;;;;;;13.20;99.90;;;;;;5047852;28;19986;-75
2022/07/27 04:32:33;;;;;;;;;;;13.20;99.90;;;;;;5049047;28;20387;-74
2022/07/27 04:35:17;;;;;;;;;;;13.20;99.90;;;;;;5056174;28;19915;-75
2022/07/27 04:38:01;;;;;;;;;;;13.20;99.90;;;;;;5052131;28;19920;-74
2022/07/27 04:40:45;;;;;;;;;;;13.20;99.90;;;;;;5048647;28;19915;-74
2022/07/27 04:43:30;;;;;;;;;;;13.20;99.90;;;;;;5038735;28;19920;-75
2022/07/27 04:46:14;;;;;;;;;;;13.20;99.90;;;;;;5045547;28;19915;-75
2022/07/27 04:48:58;;;;;;;;;;;13.20;99.90;;;;;;5062327;28;20288;-75
2022/07/27 04:51:43;;;;;;;;;;;13.20;99.90;;;;;;5051605;28;19920;-74
2022/07/27 04:54:27;;;;;;;;;;;13.30;99.90;;;;;;5045889;28;19927;-75
2022/07/27 04:57:11;;;;;;;;;;;13.30;99.90;;;;;;5051054;28;19920;-75
2022/07/27 04:59:56;;;;;;;;;;;13.30;99.90;;;;;;5046046;28;19916;-76
2022/07/27 05:02:40;;;;;;;;;;;13.30;99.90;;;;;;5045792;28;19971;-75
2022/07/27 05:05:24;;;;;;;;;;;13.40;99.90;;;;;;5051787;28;19916;-75
2022/07/27 05:08:09;;;;;;;;;;;13.40;99.90;;;;;;5041809;28;19916;-75
2022/07/27 05:10:53;;;;;;;;;;;13.40;99.90;;;;;;5051244;28;19920;-75
2022/07/27 05:13:40;;;;;;;;;;;13.40;99.90;;;;;;5056481;28;19916;-76
2022/07/27 05:16:25;;;;;;;;;;;13.50;99.90;;;;;;5042115;28;19954;-76
2022/07/27 05:19:11;;;;;;;;;;;13.50;99.90;;;;;;5041881;28;20441;-75
2022/07/27 05:21:55;;;;;;;;;;;13.50;99.90;;;;;;5065515;28;19917;-74
2022/07/27 05:24:39;;;;;;;;;;;13.60;99.90;;;;;;5052778;28;19916;-74
2022/07/27 05:27:23;;;;;;;;;;;13.60;99.90;;;;;;5049066;28;20008;-76
2022/07/27 05:30:08;;;;;;;;;;;13.60;99.90;;;;;;5049051;28;19915;-75
2022/07/27 05:32:52;;;;;;;;;;;13.70;99.90;;;;;;5039284;28;19959;-75
2022/07/27 05:35:36;;;;;;;;;;;13.70;99.90;;;;;;5059248;28;19919;-75
2022/07/27 05:38:21;;;;;;;;;;;13.80;99.90;;;;;;5046926;28;19991;-75
2022/07/27 05:41:05;;;;;;;;;;;13.80;99.90;;;;;;5051308;28;19916;-75
2022/07/27 05:43:50;;;;;;;;;;;13.90;99.90;;;;;;5053174;28;19919;-75
2022/07/27 05:46:35;;;;;;;;;;;13.90;99.90;;;;;;5039207;28;19919;-77
2022/07/27 05:49:20;;;;;;;;;;;14.00;99.90;;;;;;5048403;28;20470;-75
2022/07/27 05:52:04;;;;;;;;;;;14.10;99.90;;;;;;5051103;28;19967;-75
2022/07/27 05:54:48;;;;;;;;;;;14.10;99.90;;;;;;5046017;28;19954;-76
2022/07/27 05:57:32;;;;;;;;;;;14.20;99.90;;;;;;5054530;28;19974;-75
2022/07/27 06:00:17;;;;;;;;;;;14.30;99.90;;;;;;5049024;28;19962;-76
2022/07/27 06:03:22;;;;;;;;;;;14.30;99.90;;;;;;5081196;27;19917;-74
2022/07/27 06:09:09;;;;;;;;;;;14.50;99.90;;;;;;5077538;28;19924;-74
2022/07/27 06:11:53;;;;;;;;;;;14.50;99.90;;;;;;5055859;28;19974;-75
2022/07/27 06:14:37;;;;;;;;;;;14.60;99.90;;;;;;5064532;28;19955;-75
2022/07/27 06:17:22;;;;;;;;;;;14.70;99.90;;;;;;5066428;28;19979;-76
2022/07/27 06:20:07;;;;;;;;;;;14.80;99.90;;;;;;5071577;28;19927;-76
2022/07/27 06:22:52;;;;;;;;;;;14.80;99.90;;;;;;5068114;28;19923;-75
2022/07/27 06:25:36;;;;;;;;;;;14.90;99.90;;;;;;5075807;28;19970;-75
2022/07/27 06:28:21;;;;;;;;;;;14.90;99.90;;;;;;5063367;28;19924;-74
2022/07/27 06:31:05;;;;;;;;;;;15.00;99.90;;;;;;5057898;28;20391;-75
2022/07/27 06:33:49;;;;;;;;;;;15.10;99.90;;;;;;5059815;28;19923;-75
2022/07/27 06:36:33;;;;;;;;;;;15.20;99.90;;;;;;5072524;28;19954;-74
2022/07/27 06:39:18;;;;;;;;;;;15.20;99.90;;;;;;5062125;28;19920;-74
2022/07/27 06:42:02;;;;;;;;;;;15.30;99.90;;;;;;5062404;28;20224;-75
2022/07/27 06:44:46;;;;;;;;;;;15.40;99.90;;;;;;5058393;28;19967;-77
2022/07/27 06:47:30;;;;;;;;;;;15.50;99.90;;;;;;5070761;28;19936;-75
2022/07/27 06:50:14;;;;;;;;;;;15.60;99.90;;;;;;5064839;28;19919;-75
2022/07/27 06:52:59;;;;;;;;;;;15.70;99.90;;;;;;5062998;28;19919;-77
2022/07/27 06:55:43;;;;;;;;;;;15.70;99.90;;;;;;5063809;28;20344;-75
2022/07/27 06:58:27;;;;;;;;;;;15.70;99.90;;;;;;5060300;28;19920;-75
2022/07/27 07:01:13;;;;;;;;;;;15.80;99.90;;;;;;5066843;28;20332;-75
2022/07/27 07:03:58;;;;;;;;;;;15.90;99.90;;;;;;5085651;28;20386;-75
2022/07/27 07:06:43;;;;;;;;;;;15.90;99.90;;;;;;5087951;28;19922;-75
2022/07/27 07:09:28;;;;;;;;;;;16.10;99.90;;;;;;5093298;28;19942;-75
2022/07/27 07:12:12;;;;;;;;;;;16.10;99.90;;;;;;5076631;28;19958;-75
2022/07/27 07:14:57;;;;;;;;;;;16.10;99.90;;;;;;5080307;28;19978;-74
2022/07/27 07:17:41;;;;;;;;;;;16.20;99.90;;;;;;5082646;28;19918;-75
2022/07/27 07:20:25;;;;;;;;;;;16.30;99.90;;;;;;5077235;28;19919;-74
2022/07/27 07:23:10;;;;;;;;;;;16.30;99.90;;;;;;5063245;28;19923;-75
2022/07/27 07:25:54;;;;;;;;;;;16.40;99.90;;;;;;5077480;28;19920;-73
2022/07/27 07:28:38;;;;;;;;;;;16.40;99.90;;;;;;5067315;28;19939;-74
2022/07/27 07:31:22;;;;;;;;;;;16.50;99.90;;;;;;5072916;28;20368;-75
2022/07/27 07:34:06;;;;;;;;;;;16.60;99.90;;;;;;5078188;28;19927;-75
2022/07/27 07:36:51;;;;;;;;;;;16.60;99.90;;;;;;5077111;28;19919;-75
2022/07/27 07:39:35;;;;;;;;;;;16.60;99.90;;;;;;5075971;28;20049;-74
2022/07/27 07:42:20;;;;;;;;;;;16.70;99.90;;;;;;5076875;28;19966;-75
2022/07/27 07:45:04;;;;;;;;;;;16.70;99.90;;;;;;5070567;28;19970;-75
2022/07/27 07:47:48;;;;;;;;;;;16.80;99.90;;;;;;5079660;28;19919;-75
2022/07/27 07:50:32;;;;;;;;;;;16.80;99.90;;;;;;5062055;28;20086;-74
2022/07/27 07:53:16;;;;;;;;;;;16.80;99.90;;;;;;5069857;28;19919;-75
2022/07/27 07:56:01;;;;;;;;;;;16.80;99.90;;;;;;5069010;28;20109;-74
2022/07/27 07:58:47;;;;;;;;;;;16.80;99.90;;;;;;5070308;28;19938;-74
2022/07/27 08:01:31;;;;;;;;;;;16.80;99.90;;;;;;5079713;28;19923;-74
2022/07/27 08:04:15;;;;;;;;;;;16.90;99.90;;;;;;5067598;28;19935;-75
2022/07/27 08:07:00;;;;;;;;;;;17.00;99.90;;;;;;5067657;28;19962;-75
2022/07/27 08:09:44;;;;;;;;;;;17.00;99.90;;;;;;5075208;28;20522;-75
2022/07/27 08:12:28;;;;;;;;;;;17.00;99.90;;;;;;5071676;28;19918;-75
2022/07/27 08:15:13;;;;;;;;;;;17.00;99.90;;;;;;5060445;28;19927;-75
2022/07/27 08:17:58;;;;;;;;;;;17.00;99.90;;;;;;5061619;28;19919;-75
2022/07/27 08:20:42;;;;;;;;;;;16.90;99.90;;;;;;5077889;28;19919;-74
2022/07/27 08:23:26;;;;;;;;;;;17.00;99.90;;;;;;5070291;28;19965;-75
2022/07/27 08:26:11;;;;;;;;;;;17.00;99.90;;;;;;5078652;28;20372;-74
2022/07/27 08:28:55;;;;;;;;;;;16.90;99.90;;;;;;5065364;28;19924;-74
2022/07/27 08:31:39;;;;;;;;;;;16.90;99.90;;;;;;5073193;28;19920;-75
2022/07/27 08:34:23;;;;;;;;;;;17.00;99.90;;;;;;5065255;28;19928;-74
2022/07/27 08:37:08;;;;;;;;;;;17.10;99.90;;;;;;5068767;28;19973;-74
2022/07/27 08:39:52;;;;;;;;;;;17.10;99.90;;;;;;5067589;28;19920;-75
2022/07/27 08:42:36;;;;;;;;;;;17.10;99.90;;;;;;5072268;28;19922;-76
2022/07/27 08:45:20;;;;;;;;;;;17.10;99.90;;;;;;5063189;28;19934;-74
2022/07/27 08:48:04;;;;;;;;;;;17.20;99.90;;;;;;5072185;28;19923;-75
2022/07/27 08:50:49;;;;;;;;;;;17.20;99.90;;;;;;5073222;28;19938;-76
2022/07/27 08:53:33;;;;;;;;;;;17.20;99.90;;;;;;5072125;28;19923;-76
2022/07/27 08:56:17;;;;;;;;;;;17.20;99.90;;;;;;5076085;28;19970;-75
2022/07/27 08:59:02;;;;;;;;;;;17.10;99.90;;;;;;5063278;28;19958;-75
2022/07/27 09:01:45;;;;;;;;;;;17.20;99.90;;;;;;5067104;28;19922;-75
2022/07/27 09:04:30;;;;;;;;;;;17.20;99.90;;;;;;5073052;28;19924;-76
2022/07/27 09:07:26;;;;;;;;;;;17.30;99.90;;;;;;5066453;28;19920;-76
2022/07/27 09:10:11;;;;;;;;;;;17.30;99.90;;;;;;5067894;28;19920;-75
2022/07/27 09:12:55;;;;;;;;;;;17.40;99.90;;;;;;5073717;28;20011;-76
2022/07/27 09:15:43;;;;;;;;;;;17.40;99.90;;;;;;5076989;28;20003;-75
2022/07/27 09:18:28;;;;;;;;;;;17.50;99.90;;;;;;5077825;28;19919;-75
2022/07/27 09:21:19;;;;;;;;;;;17.60;99.90;;;;;;5066165;28;19919;-76
2022/07/27 09:24:07;;;;;;;;;;;17.70;99.90;;;;;;5064372;28;19932;-75
2022/07/27 09:27:00;;;;;;;;;;;17.80;99.90;;;;;;5067112;28;19920;-76
2022/07/27 09:29:44;;;;;;;;;;;17.90;99.90;;;;;;5056013;28;19962;-76
2022/07/27 09:32:28;;;;;;;;;;;17.90;99.90;;;;;;5063032;28;19919;-76
2022/07/27 09:35:14;;;;;;;;;;;18.10;99.90;;;;;;5066134;28;20088;-76
2022/07/27 09:38:18;;;;;;;;;;;18.10;99.90;;;;;;5068850;28;19991;-75
2022/07/27 09:41:03;;;;;;;;;;;18.20;99.90;;;;;;5079021;28;19920;-75
2022/07/27 09:43:49;;;;;;;;;;;18.20;99.90;;;;;;5069249;28;19984;-76
2022/07/27 09:46:35;;;;;;;;;;;18.30;99.90;;;;;;5063799;28;20018;-75
2022/07/27 09:49:25;;;;;;;;;;;18.40;99.90;;;;;;5067005;28;19947;-75
2022/07/27 09:52:20;;;;;;;;;;;18.40;99.90;;;;;;5077036;28;19919;-76
2022/07/27 09:55:05;;;;;;;;;;;18.50;99.90;;;;;;5067851;28;20285;-75
2022/07/27 09:57:56;;;;;;;;;;;18.50;99.90;;;;;;5071445;28;19920;-76
2022/07/27 10:00:53;;;;;;;;;;;18.60;99.90;;;;;;5065649;28;19955;-75
2022/07/27 10:03:38;;;;;;;;;;;18.70;99.90;;;;;;5071463;28;19924;-75
2022/07/27 10:06:22;;;;;;;;;;;18.80;99.90;;;;;;5076971;28;19970;-76
2022/07/27 10:09:06;;;;;;;;;;;18.80;99.90;;;;;;5072889;28;19927;-75
2022/07/27 10:11:50;;;;;;;;;;;18.90;99.90;;;;;;5074578;28;19966;-75
2022/07/27 10:14:35;;;;;;;;;;;18.90;99.90;;;;;;5070715;28;20028;-75
2022/07/27 10:17:19;;;;;;;;;;;18.80;99.90;;;;;;5071027;28;19919;-76
2022/07/27 10:20:07;;;;;;;;;;;18.80;99.90;;;;;;5076869;28;19924;-75
2022/07/27 10:22:51;;;;;;;;;;;18.80;99.90;;;;;;5064277;28;19923;-76
2022/07/27 10:25:36;;;;;;;;;;;18.90;99.90;;;;;;5077515;28;19919;-76
2022/07/27 10:28:20;;;;;;;;;;;18.90;99.90;;;;;;5065156;28;20391;-75
2022/07/27 10:31:16;;;;;;;;;;;18.90;99.90;;;;;;5078550;28;19927;-75
2022/07/27 10:34:01;;;;;;;;;;;18.80;99.90;;;;;;5075240;28;19923;-75
2022/07/27 10:36:46;;;;;;;;;;;18.90;99.90;;;;;;5070748;28;20002;-75
2022/07/27 10:39:38;;;;;;;;;;;18.90;99.90;;;;;;5073070;28;19935;-75
2022/07/27 10:42:26;;;;;;;;;;;18.90;99.90;;;;;;5075465;28;19939;-75
2022/07/27 10:45:11;;;;;;;;;;;18.90;99.90;;;;;;5061167;28;20406;-76
2022/07/27 10:47:56;;;;;;;;;;;18.90;99.90;;;;;;5074154;28;20402;-75
2022/07/27 10:50:46;;;;;;;;;;;18.80;99.90;;;;;;5068241;28;19926;-75
2022/07/27 10:53:31;;;;;;;;;;;18.80;99.90;;;;;;5072668;28;19919;-75
2022/07/27 10:56:35;;;;;;;;;;;18.80;99.90;;;;;;5063373;28;20006;-76
2022/07/27 10:59:37;;;;;;;;;;;18.80;99.90;;;;;;5071900;28;19933;-75
2022/07/27 11:02:35;;;;;;;;;;;18.70;99.90;;;;;;5078752;28;19922;-75
2022/07/27 11:05:20;;;;;;;;;;;18.70;99.90;;;;;;5079742;28;20468;-75
2022/07/27 11:08:04;;;;;;;;;;;18.70;99.90;;;;;;5078178;28;19924;-75
2022/07/27 11:10:49;;;;;;;;;;;18.70;99.90;;;;;;5078021;28;19919;-75
2022/07/27 11:13:33;;;;;;;;;;;18.60;99.90;;;;;;5072728;28;20047;-75
2022/07/27 11:16:18;;;;;;;;;;;18.60;99.90;;;;;;5067978;28;20015;-75
2022/07/27 11:19:04;;;;;;;;;;;18.70;99.90;;;;;;5070029;28;19920;-75
2022/07/27 11:21:48;;;;;;;;;;;18.60;99.90;;;;;;5077030;28;20399;-75
2022/07/27 11:24:32;;;;;;;;;;;18.70;99.90;;;;;;5088119;28;20012;-74
2022/07/27 11:27:16;;;;;;;;;;;18.70;99.90;;;;;;5070580;28;19919;-75
2022/07/27 11:30:00;;;;;;;;;;;18.70;99.90;;;;;;5080060;28;19923;-75
2022/07/27 11:32:45;;;;;;;;;;;18.70;99.90;;;;;;5084669;28;19920;-75
2022/07/27 11:35:29;;;;;;;;;;;18.70;99.90;;;;;;5075186;28;19924;-75
2022/07/27 11:38:13;;;;;;;;;;;18.70;99.90;;;;;;5080996;28;19976;-76
2022/07/27 11:40:58;;;;;;;;;;;18.70;99.90;;;;;;5075609;28;19966;-75
2022/07/27 11:43:42;;;;;;;;;;;18.80;99.90;;;;;;5075973;28;20016;-76
2022/07/27 11:46:27;;;;;;;;;;;18.90;99.90;;;;;;5080397;28;20007;-76
2022/07/27 11:49:13;;;;;;;;;;;18.90;99.90;;;;;;5066513;28;19919;-75
2022/07/27 11:52:00;;;;;;;;;;;19.00;99.90;;;;;;5078255;28;19920;-76
2022/07/27 11:54:49;;;;;;;;;;;19.10;99.90;;;;;;5066828;28;20022;-75
2022/07/27 11:57:33;;;;;;;;;;;19.30;99.90;;;;;;5074448;28;19919;-76
2022/07/27 12:00:17;;;;;;;;;;;19.40;99.90;;;;;;5070369;28;19980;-75
2022/07/27 12:03:02;;;;;;;;;;;19.50;99.90;;;;;;5065696;28;20384;-75
2022/07/27 12:05:50;;;;;;;;;;;19.60;99.90;;;;;;5069208;28;20004;-76
2022/07/27 12:08:34;;;;;;;;;;;19.50;99.90;;;;;;5078017;28;20280;-76
2022/07/27 12:11:26;;;;;;;;;;;19.30;99.90;;;;;;5077642;28;19919;-76
2022/07/27 12:14:11;;;;;;;;;;;19.30;99.90;;;;;;5080475;28;19920;-76
2022/07/27 12:17:08;;;;;;;;;;;19.10;99.90;;;;;;5065331;28;19967;-75
2022/07/27 12:20:09;;;;;;;;;;;19.00;99.90;;;;;;5071376;28;19920;-75
2022/07/27 12:22:53;;;;;;;;;;;18.90;99.90;;;;;;5074329;28;20026;-76
2022/07/27 12:25:38;;;;;;;;;;;18.80;99.90;;;;;;5084488;28;19919;-75
2022/07/27 12:28:24;;;;;;;;;;;18.80;99.90;;;;;;5075379;28;19923;-75
2022/07/27 12:31:15;;;;;;;;;;;18.70;99.90;;;;;;5068284;28;19935;-76
2022/07/27 12:34:00;;;;;;;;;;;18.70;99.90;;;;;;5073965;28;20434;-76
2022/07/27 12:36:44;;;;;;;;;;;18.70;99.90;;;;;;5066504;28;20467;-75
2022/07/27 12:39:29;;;;;;;;;;;18.70;99.90;;;;;;5066233;28;19919;-76
2022/07/27 12:42:14;;;;;;;;;;;18.70;99.90;;;;;;5074572;28;19923;-75
2022/07/27 12:45:08;;;;;;;;;;;18.60;99.90;;;;;;5081258;28;19919;-75
2022/07/27 12:48:02;;;;;;;;;;;18.60;99.90;;;;;;5084239;28;20421;-74
2022/07/27 12:50:47;;;;;;;;;;;18.60;99.90;;;;;;5073900;28;19981;-74
2022/07/27 12:53:32;;;;;;;;;;;18.50;99.90;;;;;;5066115;28;20375;-75
2022/07/27 12:56:16;;;;;;;;;;;18.60;99.90;;;;;;5071472;28;19919;-75
2022/07/27 12:59:02;;;;;;;;;;;18.60;99.90;;;;;;5066098;28;19936;-76
2022/07/27 13:01:46;;;;;;;;;;;18.60;99.90;;;;;;5077711;28;20436;-74
2022/07/27 13:04:30;;;;;;;;;;;18.70;99.90;;;;;;5067600;28;19924;-75
2022/07/27 13:07:16;;;;;;;;;;;18.80;99.90;;;;;;5054271;28;19985;-76
2022/07/27 13:10:01;;;;;;;;;;;18.80;99.90;;;;;;5075704;28;19962;-75
2022/07/27 13:12:47;;;;;;;;;;;18.80;99.90;;;;;;5077703;28;19966;-76
2022/07/27 13:15:31;;;;;;;;;;;18.80;99.90;;;;;;5056957;28;20410;-75
2022/07/27 13:18:15;;;;;;;;;;;18.90;99.90;;;;;;5074207;28;20382;-76
2022/07/27 13:20:59;;;;;;;;;;;19.10;99.90;;;;;;5063108;28;20021;-76
2022/07/27 13:23:45;;;;;;;;;;;19.10;99.90;;;;;;5073956;28;20057;-76
2022/07/27 13:26:29;;;;;;;;;;;19.30;99.90;;;;;;5067696;28;19916;-76
2022/07/27 13:29:13;;;;;;;;;;;19.30;99.90;;;;;;5078520;28;19919;-75
2022/07/27 13:31:58;;;;;;;;;;;19.40;99.90;;;;;;5070168;28;19915;-76
2022/07/27 13:34:42;;;;;;;;;;;19.40;99.90;;;;;;5071687;28;19944;-76
2022/07/27 13:37:26;;;;;;;;;;;19.40;99.90;;;;;;5067264;28;19958;-75
2022/07/27 13:40:10;;;;;;;;;;;19.50;99.90;;;;;;5072665;28;19953;-76
2022/07/27 13:42:54;;;;;;;;;;;19.50;99.90;;;;;;5073796;28;19920;-76
2022/07/27 13:45:39;;;;;;;;;;;19.50;99.90;;;;;;5071786;28;19980;-76
2022/07/27 13:48:23;;;;;;;;;;;19.60;99.90;;;;;;5069173;28;19916;-75
2022/07/27 13:51:07;;;;;;;;;;;19.70;99.90;;;;;;5080512;28;19916;-76
2022/07/27 13:53:51;;;;;;;;;;;19.90;99.90;;;;;;5075698;28;19919;-76
2022/07/27 13:56:36;;;;;;;;;;;20.10;99.90;;;;;;5079264;28;19915;-76
2022/07/27 13:59:20;;;;;;;;;;;20.20;99.90;;;;;;5066030;28;20411;-76
2022/07/27 14:02:04;;;;;;;;;;;20.30;99.90;;;;;;5077828;28;19923;-76
2022/07/27 14:04:49;;;;;;;;;;;20.40;99.90;;;;;;5075448;28;19916;-75
2022/07/27 14:07:33;;;;;;;;;;;20.40;99.90;;;;;;5062951;28;19955;-76
2022/07/27 14:13:21;;;;;;;;;;;20.50;99.90;;;;;;5072158;28;20012;-76
2022/07/27 14:16:08;;;;;;;;;;;20.50;99.90;;;;;;5076272;28;20378;-76
2022/07/27 14:18:52;;;;;;;;;;;20.50;99.90;;;;;;5077471;28;19919;-76
2022/07/27 14:21:37;;;;;;;;;;;20.50;99.90;;;;;;5081645;28;19995;-75
2022/07/27 14:24:21;;;;;;;;;;;20.50;99.90;;;;;;5083168;28;20003;-75
2022/07/27 14:27:05;;;;;;;;;;;20.50;99.90;;;;;;5073314;28;19919;-76
2022/07/27 14:29:49;;;;;;;;;;;20.60;99.90;;;;;;5065418;28;19955;-76
2022/07/27 14:32:34;;;;;;;;;;;20.60;99.90;;;;;;5074165;28;19916;-75
2022/07/27 14:35:19;;;;;;;;;;;20.70;99.90;;;;;;5067903;28;19974;-76
2022/07/27 14:38:03;;;;;;;;;;;20.80;99.90;;;;;;5072826;28;20012;-76
2022/07/27 14:40:48;;;;;;;;;;;20.80;99.90;;;;;;5079094;28;19916;-75
2022/07/27 14:43:33;;;;;;;;;;;20.80;99.90;;;;;;5068905;28;19973;-76
2022/07/27 14:46:17;;;;;;;;;;;20.90;99.90;;;;;;5065374;28;19916;-76
2022/07/27 14:49:01;;;;;;;;;;;21.00;99.90;;;;;;5081294;28;19970;-76
2022/07/27 14:51:45;;;;;;;;;;;21.10;99.90;;;;;;5066805;28;19915;-76
2022/07/27 14:54:30;;;;;;;;;;;21.20;99.90;;;;;;5071841;28;19931;-75
2022/07/27 14:57:14;;;;;;;;;;;21.30;99.90;;;;;;5064021;28;19999;-76
2022/07/27 14:59:59;;;;;;;;;;;21.20;99.90;;;;;;5073817;28;19916;-76
2022/07/27 15:02:43;;;;;;;;;;;21.20;99.90;;;;;;5070392;28;19973;-76
2022/07/27 15:05:30;;;;;;;;;;;21.20;99.90;;;;;;5073473;28;19955;-75
2022/07/27 15:08:14;;;;;;;;;;;21.10;99.90;;;;;;5065076;28;19994;-75
2022/07/27 15:10:58;;;;;;;;;;;21.10;99.90;;;;;;5075790;28;19920;-76
2022/07/27 15:13:42;;;;;;;;;;;21.10;99.90;;;;;;5066261;28;20016;-76
2022/07/27 15:16:28;;;;;;;5.05;0.90;;;21.20;99.90;;;;;;5068380;28;20062;-75
2022/07/27 15:19:12;;;;;;;2.95;0.70;;;21.30;99.90;;;;;;5076350;28;20765;-76
2022/07/27 15:21:56;;;;;;;2.45;0.65;;;21.10;99.90;;;;;;5075064;28;20258;-76
2022/07/27 15:24:40;;;;;;;6.00;0.63;;;21.10;99.90;;;;;;5081679;28;20181;-75
2022/07/27 15:27:24;;;;;;;2.83;0.77;;;21.10;99.90;;;;;;5067858;28;20386;-76
2022/07/27 15:30:08;;;;;;;5.75;0.90;;;21.10;99.90;;;;;;5059629;28;20190;-76
2022/07/27 15:32:52;;;;;;;2.15;0.95;;;21.10;99.90;;;;;;5068948;28;20189;-76
2022/07/27 15:35:37;;;;;;;6.15;0.85;;;21.00;99.90;;;;;;5075556;28;20677;-76
2022/07/27 15:38:21;;;;;;;3.60;0.60;;;20.80;99.90;;;;;;5068464;28;20210;-75
2022/07/27 15:41:05;;;;;;;4.18;1.08;;;20.70;99.90;;;;;;5065771;28;20784;-75
2022/07/27 15:43:49;;;;;;;2.95;0.80;;;20.70;99.90;;;;;;5074765;28;20477;-75